Time,TemperatureF,DewpointF,PressureIn,WindDirection,WindDirectionDegrees,WindSpeedMPH,WindSpeedGustMPH,Humidity,HourlyPrecipIn,Conditions,Clouds,dailyrainin,SoftwareType,DateUTC
2013-07-12 00:00:00,74.6,56.9,29.95,ESE,109,0.0,3.0,54,0.00,,---,0.00,VWS V14.01,2013-07-12 05:00:00,
2013-07-12 00:01:00,73.2,57.5,29.95,SE,139,1.0,2.0,58,0.00,,---,0.00,VWS V14.01,2013-07-12 05:01:00,
2013-07-12 00:06:00,73.0,57.4,29.95,SE,138,0.0,2.0,58,0.00,,---,0.00,VWS V14.01,2013-07-12 05:06:00,
2013-07-12 00:11:00,73.0,57.4,29.95,ESE,106,1.0,4.0,58,0.00,,---,0.00,VWS V14.01,2013-07-12 05:11:00,
2013-07-12 00:16:00,73.0,57.4,29.95,ESE,111,0.0,4.0,58,0.00,,---,0.00,VWS V14.01,2013-07-12 05:16:00,
2013-07-12 00:21:00,73.0,57.4,29.95,ESE,108,0.0,4.0,58,0.00,,---,0.00,VWS V14.01,2013-07-12 05:21:00,
2013-07-12 00:26:00,72.8,57.7,29.95,ESE,111,0.0,4.0,59,0.00,,---,0.00,VWS V14.01,2013-07-12 05:26:00,
2013-07-12 00:30:00,73.7,57.0,29.95,ESE,105,0.0,6.0,56,0.00,,---,0.00,VWS V14.01,2013-07-12 05:30:00,
2013-07-12 00:31:00,72.8,57.7,29.95,SE,144,1.0,2.0,59,0.00,,---,0.00,VWS V14.01,2013-07-12 05:31:00,
2013-07-12 00:36:00,72.7,57.6,29.95,SE,138,0.0,4.0,59,0.00,,---,0.00,VWS V14.01,2013-07-12 05:36:00,
2013-07-12 00:41:00,72.7,57.6,29.95,SE,124,2.0,4.0,59,0.00,,---,0.00,VWS V14.01,2013-07-12 05:41:00,
2013-07-12 00:46:00,72.5,57.4,29.95,ESE,115,0.0,4.0,59,0.00,,---,0.00,VWS V14.01,2013-07-12 05:46:00,
2013-07-12 00:51:00,72.5,57.8,29.95,ESE,115,2.0,4.0,60,0.00,,---,0.00,VWS V14.01,2013-07-12 05:51:00,
2013-07-12 00:56:00,72.3,57.7,29.95,ESE,123,0.0,4.0,60,0.00,,---,0.00,VWS V14.01,2013-07-12 05:56:00,
2013-07-12 01:00:00,73.2,57.5,29.95,SSE,158,0.0,3.0,58,0.00,,---,0.00,VWS V14.01,2013-07-12 06:00:00,
2013-07-12 01:01:00,72.3,57.7,29.95,ESE,123,1.0,1.0,60,0.00,,---,0.00,VWS V14.01,2013-07-12 06:01:00,
2013-07-12 01:06:00,72.1,57.5,29.95,ESE,123,0.0,2.0,60,0.00,,---,0.00,VWS V14.01,2013-07-12 06:06:00,
2013-07-12 01:11:00,72.0,57.8,29.95,ESE,123,2.0,3.0,61,0.00,,---,0.00,VWS V14.01,2013-07-12 06:11:00,
2013-07-12 01:16:00,71.8,57.6,29.95,SE,146,0.0,3.0,61,0.00,,---,0.00,VWS V14.01,2013-07-12 06:16:00,
2013-07-12 01:21:00,71.6,57.5,29.95,South,174,1.0,3.0,61,0.00,,---,0.00,VWS V14.01,2013-07-12 06:21:00,
2013-07-12 01:26:00,71.6,57.9,29.95,South,171,0.0,3.0,62,0.00,,---,0.00,VWS V14.01,2013-07-12 06:26:00,
2013-07-12 01:30:00,72.8,57.7,29.95,SSE,147,0.0,4.0,59,0.00,,---,0.00,VWS V14.01,2013-07-12 06:30:00,
2013-07-12 01:31:00,71.5,57.8,29.95,SE,130,0.0,0.0,62,0.00,,---,0.00,VWS V14.01,2013-07-12 06:31:00,
2013-07-12 01:36:00,71.3,57.6,29.95,South,180,1.0,3.0,62,0.00,,---,0.00,VWS V14.01,2013-07-12 06:36:00,
2013-07-12 01:41:00,71.1,57.9,29.95,ESE,114,0.0,3.0,63,0.00,,---,0.00,VWS V14.01,2013-07-12 06:41:00,
2013-07-12 01:46:00,71.1,57.9,29.97,SSE,148,0.0,3.0,63,0.00,,---,0.00,VWS V14.01,2013-07-12 06:46:00,
2013-07-12 01:51:00,70.9,57.7,29.97,South,175,3.0,4.0,63,0.00,,---,0.00,VWS V14.01,2013-07-12 06:51:00,
2013-07-12 01:56:00,70.9,58.1,29.97,SSE,161,1.0,4.0,64,0.00,,---,0.00,VWS V14.01,2013-07-12 06:56:00,
2013-07-12 02:00:00,72.3,57.7,29.95,ESE,123,0.0,4.0,60,0.00,,---,0.00,VWS V14.01,2013-07-12 07:00:00,
2013-07-12 02:01:00,70.8,58.0,29.97,SE,130,0.0,1.0,64,0.00,,---,0.00,VWS V14.01,2013-07-12 07:01:00,
2013-07-12 02:06:00,70.6,57.8,29.97,SE,124,0.0,2.0,64,0.00,,---,0.00,VWS V14.01,2013-07-12 07:06:00,
2013-07-12 02:11:00,70.4,57.7,29.97,SE,134,0.0,3.0,64,0.00,,---,0.00,VWS V14.01,2013-07-12 07:11:00,
2013-07-12 02:16:00,70.3,58.0,29.97,SE,136,2.0,3.0,65,0.00,,---,0.00,VWS V14.01,2013-07-12 07:16:00,
2013-07-12 02:21:00,70.3,58.0,29.97,SE,136,1.0,3.0,65,0.00,,---,0.00,VWS V14.01,2013-07-12 07:21:00,
2013-07-12 02:26:00,70.1,57.8,29.97,ESE,103,0.0,3.0,65,0.00,,---,0.00,VWS V14.01,2013-07-12 07:26:00,
2013-07-12 02:30:00,71.5,57.8,29.95,SE,130,0.0,3.0,62,0.00,,---,0.00,VWS V14.01,2013-07-12 07:30:00,
2013-07-12 02:31:00,70.1,58.2,29.97,SSE,150,0.0,0.0,66,0.00,,---,0.00,VWS V14.01,2013-07-12 07:31:00,
2013-07-12 02:36:00,69.9,58.0,29.97,ESE,122,1.0,1.0,66,0.00,,---,0.00,VWS V14.01,2013-07-12 07:36:00,
2013-07-12 02:41:00,69.9,58.0,29.97,SE,140,0.0,2.0,66,0.00,,---,0.00,VWS V14.01,2013-07-12 07:41:00,
2013-07-12 02:46:00,69.8,58.4,29.97,ESE,119,3.0,4.0,67,0.00,,---,0.00,VWS V14.01,2013-07-12 07:46:00,
2013-07-12 02:51:00,69.8,58.4,29.97,SSE,165,0.0,4.0,67,0.00,,---,0.00,VWS V14.01,2013-07-12 07:51:00,
2013-07-12 02:56:00,69.8,58.8,29.97,SSE,165,0.0,4.0,68,0.00,,---,0.00,VWS V14.01,2013-07-12 07:56:00,
2013-07-12 03:00:00,70.8,58.0,29.97,SE,130,0.0,4.0,64,0.00,,---,0.00,VWS V14.01,2013-07-12 08:00:00,
2013-07-12 03:01:00,69.8,58.8,29.96,SE,129,0.0,3.0,68,0.00,,---,0.00,VWS V14.01,2013-07-12 08:01:00,
2013-07-12 03:06:00,69.8,58.8,29.96,ESE,102,0.0,7.0,68,0.00,,---,0.00,VWS V14.01,2013-07-12 08:06:00,
2013-07-12 03:11:00,69.8,58.8,29.96,SSE,155,1.0,7.0,68,0.00,,---,0.00,VWS V14.01,2013-07-12 08:11:00,
2013-07-12 03:16:00,69.6,58.6,29.97,South,182,0.0,7.0,68,0.00,,---,0.00,VWS V14.01,2013-07-12 08:16:00,
2013-07-12 03:21:00,69.6,59.0,29.97,SE,140,1.0,7.0,69,0.00,,---,0.00,VWS V14.01,2013-07-12 08:21:00,
2013-07-12 03:26:00,69.6,59.0,29.97,ESE,115,0.0,7.0,69,0.00,,---,0.00,VWS V14.01,2013-07-12 08:26:00,
2013-07-12 03:30:00,70.1,58.2,29.97,SSE,150,0.0,4.0,66,0.00,,---,0.00,VWS V14.01,2013-07-12 08:30:00,
2013-07-12 03:31:00,69.6,59.0,29.96,SSE,154,1.0,1.0,69,0.00,,---,0.00,VWS V14.01,2013-07-12 08:31:00,
2013-07-12 03:36:00,69.4,58.8,29.96,SSE,153,1.0,4.0,69,0.00,,---,0.00,VWS V14.01,2013-07-12 08:36:00,
2013-07-12 03:41:00,69.4,59.2,29.96,SSE,160,1.0,6.0,70,0.00,,---,0.00,VWS V14.01,2013-07-12 08:41:00,
2013-07-12 03:46:00,69.4,59.2,29.96,SSE,164,0.0,6.0,70,0.00,,---,0.00,VWS V14.01,2013-07-12 08:46:00,
2013-07-12 03:51:00,69.4,59.2,29.96,SSE,164,1.0,6.0,70,0.00,,---,0.00,VWS V14.01,2013-07-12 08:51:00,
2013-07-12 03:56:00,69.3,59.1,29.96,SE,134,2.0,6.0,70,0.00,,---,0.00,VWS V14.01,2013-07-12 08:56:00,
2013-07-12 04:00:00,69.8,58.8,29.96,SE,129,3.0,4.0,68,0.00,,---,0.00,VWS V14.01,2013-07-12 09:00:00,
2013-07-12 04:01:00,69.3,59.5,29.95,ESE,119,2.0,3.0,71,0.00,,---,0.00,VWS V14.01,2013-07-12 09:01:00,
2013-07-12 04:06:00,69.1,59.3,29.95,SSE,157,1.0,7.0,71,0.00,,---,0.00,VWS V14.01,2013-07-12 09:06:00,
2013-07-12 04:11:00,68.9,59.1,29.95,SE,128,0.0,7.0,71,0.00,,---,0.00,VWS V14.01,2013-07-12 09:11:00,
2013-07-12 04:16:00,68.8,59.0,29.96,SSE,148,0.0,7.0,71,0.00,,---,0.00,VWS V14.01,2013-07-12 09:16:00,
2013-07-12 04:21:00,68.8,59.4,29.96,SSE,162,2.0,7.0,72,0.00,,---,0.00,VWS V14.01,2013-07-12 09:21:00,
2013-07-12 04:26:00,68.6,59.2,29.96,SSE,154,0.0,7.0,72,0.00,,---,0.00,VWS V14.01,2013-07-12 09:26:00,
2013-07-12 04:30:00,69.6,59.0,29.96,SSE,154,0.0,7.0,69,0.00,,---,0.00,VWS V14.01,2013-07-12 09:30:00,
2013-07-12 04:31:00,68.4,59.0,29.96,SSE,148,1.0,3.0,72,0.00,,---,0.00,VWS V14.01,2013-07-12 09:31:00,
2013-07-12 04:36:00,68.4,59.4,29.96,SSE,159,1.0,4.0,73,0.00,,---,0.00,VWS V14.01,2013-07-12 09:36:00,
2013-07-12 04:41:00,68.3,59.3,29.96,SE,133,1.0,4.0,73,0.00,,---,0.00,VWS V14.01,2013-07-12 09:41:00,
2013-07-12 04:46:00,68.3,59.3,29.96,SSE,147,0.0,4.0,73,0.00,,---,0.00,VWS V14.01,2013-07-12 09:46:00,
2013-07-12 04:51:00,68.3,59.3,29.96,ESE,103,1.0,4.0,73,0.00,,---,0.00,VWS V14.01,2013-07-12 09:51:00,
2013-07-12 04:56:00,68.3,59.3,29.96,SE,143,2.0,5.0,73,0.00,,---,0.00,VWS V14.01,2013-07-12 09:56:00,
2013-07-12 05:00:00,69.3,59.5,29.95,SSE,150,2.0,6.0,71,0.00,,---,0.00,VWS V14.01,2013-07-12 10:00:00,
2013-07-12 05:01:00,68.3,59.3,29.97,ESE,110,1.0,2.0,73,0.00,,---,0.00,VWS V14.01,2013-07-12 10:01:00,
2013-07-12 05:06:00,68.1,59.1,29.97,ESE,117,1.0,4.0,73,0.00,,---,0.00,VWS V14.01,2013-07-12 10:06:00,
2013-07-12 05:11:00,68.1,59.5,29.97,SE,134,2.0,4.0,74,0.00,,---,0.00,VWS V14.01,2013-07-12 10:11:00,
2013-07-12 05:15:00,67.9,59.3,29.97,SSE,154,1.0,5.0,74,0.00,,---,0.00,VWS V14.01,2013-07-12 10:15:00,
2013-07-12 05:20:00,67.8,59.2,29.97,SSE,156,1.0,5.0,74,0.00,,---,0.00,VWS V14.01,2013-07-12 10:20:00,
2013-07-12 05:25:00,67.8,59.2,29.97,SE,144,1.0,5.0,74,0.00,,---,0.00,VWS V14.01,2013-07-12 10:25:00,
2013-07-12 05:30:00,67.6,59.4,29.97,ESE,118,0.0,1.0,75,0.00,,---,0.00,VWS V14.01,2013-07-12 10:30:00,
2013-07-12 05:35:00,67.6,59.4,29.97,SE,140,0.0,3.0,75,0.00,,---,0.00,VWS V14.01,2013-07-12 10:35:00,
2013-07-12 05:40:00,67.6,59.4,29.97,SE,145,3.0,6.0,75,0.00,,---,0.00,VWS V14.01,2013-07-12 10:40:00,
2013-07-12 05:45:00,67.6,59.4,29.97,SE,127,2.0,6.0,75,0.00,,---,0.00,VWS V14.01,2013-07-12 10:45:00,
2013-07-12 05:50:00,67.6,59.4,29.97,East,98,0.0,6.0,75,0.00,,---,0.00,VWS V14.01,2013-07-12 10:50:00,
2013-07-12 05:55:00,67.4,59.2,29.97,SSE,161,0.0,6.0,75,0.00,,---,0.00,VWS V14.01,2013-07-12 10:55:00,
2013-07-12 06:00:00,67.4,59.2,29.97,SSE,153,2.0,2.0,75,0.00,,---,0.00,VWS V14.01,2013-07-12 11:00:00,
2013-07-12 06:05:00,67.4,59.6,29.97,SE,138,2.0,7.0,76,0.00,,---,0.00,VWS V14.01,2013-07-12 11:05:00,
2013-07-12 06:10:00,67.4,59.6,29.97,SSE,167,4.0,7.0,76,0.00,,---,0.00,VWS V14.01,2013-07-12 11:10:00,
2013-07-12 06:15:00,67.6,59.8,29.98,SE,126,2.0,7.0,76,0.00,,---,0.00,VWS V14.01,2013-07-12 11:15:00,
2013-07-12 06:20:00,67.6,59.8,29.98,East,81,5.0,7.0,76,0.00,,---,0.00,VWS V14.01,2013-07-12 11:20:00,
2013-07-12 06:25:00,67.6,59.8,29.98,SE,142,1.0,7.0,76,0.00,,---,0.00,VWS V14.01,2013-07-12 11:25:00,
2013-07-12 06:30:00,67.6,59.8,29.98,SSE,148,3.0,3.0,76,0.00,,---,0.00,VWS V14.01,2013-07-12 11:30:00,
2013-07-12 06:35:00,67.8,60.0,29.98,SE,136,1.0,6.0,76,0.00,,---,0.00,VWS V14.01,2013-07-12 11:35:00,
2013-07-12 06:40:00,67.8,59.6,29.98,SSE,168,7.0,7.0,75,0.00,,---,0.00,VWS V14.01,2013-07-12 11:40:00,
2013-07-12 06:45:00,67.9,59.7,29.98,SE,125,2.0,7.0,75,0.00,,---,0.00,VWS V14.01,2013-07-12 11:45:00,
2013-07-12 06:50:00,67.9,59.7,29.98,East,98,5.0,7.0,75,0.00,,---,0.00,VWS V14.01,2013-07-12 11:50:00,
2013-07-12 06:55:00,68.1,59.9,29.98,South,177,6.0,7.0,75,0.00,,---,0.00,VWS V14.01,2013-07-12 11:55:00,
2013-07-12 07:00:00,68.3,60.1,29.98,SSE,149,3.0,7.0,75,0.00,,---,0.00,VWS V14.01,2013-07-12 12:00:00,
2013-07-12 07:05:00,68.3,60.1,29.98,SSE,150,1.0,6.0,75,0.00,,---,0.00,VWS V14.01,2013-07-12 12:05:00,
2013-07-12 07:10:00,68.4,60.2,29.98,ESE,108,2.0,8.0,75,0.00,,---,0.00,VWS V14.01,2013-07-12 12:10:00,
2013-07-12 07:15:00,68.6,60.0,29.99,SE,140,2.0,8.0,74,0.00,,---,0.00,VWS V14.01,2013-07-12 12:15:00,
2013-07-12 07:20:00,68.9,60.3,29.99,South,181,5.0,8.0,74,0.00,,---,0.00,VWS V14.01,2013-07-12 12:20:00,
2013-07-12 07:25:00,69.3,60.7,29.99,SE,143,0.0,9.0,74,0.00,,---,0.00,VWS V14.01,2013-07-12 12:25:00,
2013-07-12 07:30:00,69.6,60.6,29.99,SSE,157,2.0,2.0,73,0.00,,---,0.00,VWS V14.01,2013-07-12 12:30:00,
2013-07-12 07:35:00,69.9,60.9,29.99,SE,143,2.0,6.0,73,0.00,,---,0.00,VWS V14.01,2013-07-12 12:35:00,
2013-07-12 07:40:00,70.1,60.7,29.99,SSE,150,4.0,8.0,72,0.00,,---,0.00,VWS V14.01,2013-07-12 12:40:00,
2013-07-12 07:45:00,70.4,61.0,29.99,SSE,149,3.0,8.0,72,0.00,,---,0.00,VWS V14.01,2013-07-12 12:45:00,
2013-07-12 07:50:00,70.8,61.3,29.99,SSE,157,4.0,8.0,72,0.00,,---,0.00,VWS V14.01,2013-07-12 12:50:00,
2013-07-12 07:55:00,70.9,61.0,29.99,SSE,153,3.0,8.0,71,0.00,,---,0.00,VWS V14.01,2013-07-12 12:55:00,
2013-07-12 08:00:00,71.3,61.4,29.99,South,180,5.0,8.0,71,0.00,,---,0.00,VWS V14.01,2013-07-12 13:00:00,
2013-07-12 08:05:00,71.5,61.2,29.99,SSE,157,1.0,8.0,70,0.00,,---,0.00,VWS V14.01,2013-07-12 13:05:00,
2013-07-12 08:10:00,71.6,61.3,29.99,SE,139,5.0,8.0,70,0.00,,---,0.00,VWS V14.01,2013-07-12 13:10:00,
2013-07-12 08:15:00,72.0,61.3,29.99,ESE,121,2.0,8.0,69,0.00,,---,0.00,VWS V14.01,2013-07-12 13:15:00,
2013-07-12 08:20:00,72.3,61.6,29.99,SE,127,1.0,8.0,69,0.00,,---,0.00,VWS V14.01,2013-07-12 13:20:00,
2013-07-12 08:25:00,72.3,61.2,29.99,ESE,122,3.0,9.0,68,0.00,,---,0.00,VWS V14.01,2013-07-12 13:25:00,
2013-07-12 08:30:00,72.3,61.2,30.00,SE,139,2.0,9.0,68,0.00,,---,0.00,VWS V14.01,2013-07-12 13:30:00,
2013-07-12 08:35:00,72.5,61.3,30.00,South,186,5.0,9.0,68,0.00,,---,0.00,VWS V14.01,2013-07-12 13:35:00,
2013-07-12 08:40:00,72.7,61.5,30.00,South,169,6.0,10.0,68,0.00,,---,0.00,VWS V14.01,2013-07-12 13:40:00,
2013-07-12 08:45:00,72.7,61.5,30.00,South,188,6.0,13.0,68,0.00,,---,0.00,VWS V14.01,2013-07-12 13:45:00,
2013-07-12 08:50:00,72.8,61.2,30.00,South,180,2.0,13.0,67,0.00,,---,0.00,VWS V14.01,2013-07-12 13:50:00,
2013-07-12 08:55:00,73.0,61.4,30.00,SE,142,5.0,14.0,67,0.00,,---,0.00,VWS V14.01,2013-07-12 13:55:00,
2013-07-12 09:00:00,73.2,61.6,29.99,SSW,207,6.0,14.0,67,0.00,,---,0.00,VWS V14.01,2013-07-12 14:00:00,
2013-07-12 09:05:00,73.7,61.7,29.99,East,98,5.0,10.0,66,0.00,,---,0.00,VWS V14.01,2013-07-12 14:05:00,
2013-07-12 09:10:00,74.0,61.5,29.99,SSE,161,2.0,11.0,65,0.00,,---,0.00,VWS V14.01,2013-07-12 14:10:00,
2013-07-12 09:15:00,74.4,61.9,30.00,SE,128,4.0,11.0,65,0.00,,---,0.00,VWS V14.01,2013-07-12 14:15:00,
2013-07-12 09:20:00,74.9,61.9,30.00,SSE,159,3.0,11.0,64,0.00,,---,0.00,VWS V14.01,2013-07-12 14:20:00,
2013-07-12 09:25:00,75.3,61.8,30.00,East,101,3.0,11.0,63,0.00,,---,0.00,VWS V14.01,2013-07-12 14:25:00,
2013-07-12 09:30:00,75.6,62.1,30.00,South,169,5.0,11.0,63,0.00,,---,0.00,VWS V14.01,2013-07-12 14:30:00,
2013-07-12 09:35:00,76.0,62.0,30.00,SE,124,7.0,7.0,62,0.00,,---,0.00,VWS V14.01,2013-07-12 14:35:00,
2013-07-12 09:40:00,76.5,62.5,30.00,SSE,147,7.0,8.0,62,0.00,,---,0.00,VWS V14.01,2013-07-12 14:40:00,
2013-07-12 09:45:00,76.7,62.2,29.99,ESE,109,4.0,10.0,61,0.00,,---,0.00,VWS V14.01,2013-07-12 14:45:00,
2013-07-12 09:50:00,77.0,62.1,29.99,SSE,167,4.0,12.0,60,0.00,,---,0.00,VWS V14.01,2013-07-12 14:50:00,
2013-07-12 09:55:00,77.2,62.2,29.99,SSE,163,2.0,12.0,60,0.00,,---,0.00,VWS V14.01,2013-07-12 14:55:00,
2013-07-12 10:00:00,77.4,62.4,29.99,ESE,109,3.0,12.0,60,0.00,,---,0.00,VWS V14.01,2013-07-12 15:00:00,
2013-07-12 10:05:00,77.6,62.2,29.99,SE,142,2.0,14.0,59,0.00,,---,0.00,VWS V14.01,2013-07-12 15:05:00,
2013-07-12 10:10:00,77.7,62.2,29.99,SSE,153,3.0,14.0,59,0.00,,---,0.00,VWS V14.01,2013-07-12 15:10:00,
2013-07-12 10:15:00,77.7,62.2,29.98,SE,140,3.0,14.0,59,0.00,,---,0.00,VWS V14.01,2013-07-12 15:15:00,
2013-07-12 10:20:00,78.1,62.6,29.98,SSE,155,1.0,14.0,59,0.00,,---,0.00,VWS V14.01,2013-07-12 15:20:00,
2013-07-12 10:25:00,78.6,63.1,29.98,SSE,166,6.0,14.0,59,0.00,,---,0.00,VWS V14.01,2013-07-12 15:25:00,
2013-07-12 10:30:00,78.8,62.8,29.98,SE,129,4.0,14.0,58,0.00,,---,0.00,VWS V14.01,2013-07-12 15:30:00,
2013-07-12 10:35:00,79.2,63.2,29.98,East,84,7.0,11.0,58,0.00,,---,0.00,VWS V14.01,2013-07-12 15:35:00,
2013-07-12 10:40:00,79.2,62.7,29.98,SE,134,3.0,11.0,57,0.00,,---,0.00,VWS V14.01,2013-07-12 15:40:00,
2013-07-12 10:45:00,79.6,63.0,29.98,ESE,114,1.0,11.0,57,0.00,,---,0.00,VWS V14.01,2013-07-12 15:45:00,
2013-07-12 10:50:00,79.8,63.2,29.98,ESE,111,4.0,11.0,57,0.00,,---,0.00,VWS V14.01,2013-07-12 15:50:00,
2013-07-12 10:55:00,79.9,63.3,29.98,ESE,123,1.0,11.0,57,0.00,,---,0.00,VWS V14.01,2013-07-12 15:55:00,
2013-07-12 11:00:00,80.1,63.0,29.98,SE,142,3.0,11.0,56,0.00,,---,0.00,VWS V14.01,2013-07-12 16:00:00,
2013-07-12 11:05:00,80.1,63.0,29.98,ESE,111,3.0,9.0,56,0.00,,---,0.00,VWS V14.01,2013-07-12 16:05:00,
2013-07-12 11:10:00,80.3,63.2,29.98,ESE,117,0.0,9.0,56,0.00,,---,0.00,VWS V14.01,2013-07-12 16:10:00,
2013-07-12 11:15:00,80.9,63.8,29.98,East,91,3.0,9.0,56,0.00,,---,0.00,VWS V14.01,2013-07-12 16:15:00,
2013-07-12 11:20:00,81.1,63.4,29.98,SE,139,6.0,10.0,55,0.00,,---,0.00,VWS V14.01,2013-07-12 16:20:00,
2013-07-12 11:25:00,81.4,63.7,29.98,SSE,163,1.0,10.0,55,0.00,,---,0.00,VWS V14.01,2013-07-12 16:25:00,
2013-07-12 11:30:00,81.4,63.7,29.98,SE,132,1.0,10.0,55,0.00,,---,0.00,VWS V14.01,2013-07-12 16:30:00,
2013-07-12 11:35:00,81.8,64.1,29.98,SE,136,3.0,10.0,55,0.00,,---,0.00,VWS V14.01,2013-07-12 16:35:00,
2013-07-12 11:40:00,82.0,63.7,29.98,East,96,7.0,11.0,54,0.00,,---,0.00,VWS V14.01,2013-07-12 16:40:00,
2013-07-12 11:45:00,82.2,63.9,29.98,ESE,122,3.0,11.0,54,0.00,,---,0.00,VWS V14.01,2013-07-12 16:45:00,
2013-07-12 11:50:00,82.2,63.9,29.98,South,185,3.0,11.0,54,0.00,,---,0.00,VWS V14.01,2013-07-12 16:50:00,
2013-07-12 11:55:00,82.4,64.1,29.98,SE,128,4.0,11.0,54,0.00,,---,0.00,VWS V14.01,2013-07-12 16:55:00,
2013-07-12 12:00:00,82.6,64.3,29.98,ESE,121,1.0,11.0,54,0.00,,---,0.00,VWS V14.01,2013-07-12 17:00:00,
2013-07-12 12:05:00,82.8,64.5,29.98,SE,142,3.0,7.0,54,0.00,,---,0.00,VWS V14.01,2013-07-12 17:05:00,
2013-07-12 12:10:00,83.0,64.1,29.98,SSE,147,3.0,8.0,53,0.00,,---,0.00,VWS V14.01,2013-07-12 17:10:00,
2013-07-12 12:15:00,83.6,64.7,29.97,SSE,158,7.0,8.0,53,0.00,,---,0.00,VWS V14.01,2013-07-12 17:15:00,
2013-07-12 12:20:00,84.0,65.1,29.97,ESE,121,8.0,8.0,53,0.00,,---,0.00,VWS V14.01,2013-07-12 17:20:00,
2013-07-12 12:25:00,84.0,64.5,29.97,South,178,5.0,10.0,52,0.00,,---,0.00,VWS V14.01,2013-07-12 17:25:00,
2013-07-12 12:30:00,84.1,64.6,29.97,South,180,6.0,7.0,52,0.00,,---,0.00,VWS V14.01,2013-07-12 17:30:00,
2013-07-12 12:35:00,84.0,64.5,29.97,SE,142,1.0,10.0,52,0.00,,---,0.00,VWS V14.01,2013-07-12 17:35:00,
2013-07-12 12:40:00,84.0,64.5,29.97,SSE,160,3.0,10.0,52,0.00,,---,0.00,VWS V14.01,2013-07-12 17:40:00,
2013-07-12 12:46:00,84.3,64.8,29.97,East,95,11.0,11.0,52,0.00,,---,0.00,VWS V14.01,2013-07-12 17:46:00,
2013-07-12 12:51:00,84.5,64.4,29.97,SSE,158,4.0,11.0,51,0.00,,---,0.00,VWS V14.01,2013-07-12 17:51:00,
2013-07-12 12:56:00,84.7,64.6,29.97,ESE,118,3.0,11.0,51,0.00,,---,0.00,VWS V14.01,2013-07-12 17:56:00,
2013-07-12 13:00:00,82.6,64.3,29.98,ESE,121,1.0,11.0,54,0.00,,---,0.00,VWS V14.01,2013-07-12 18:00:00,
2013-07-12 13:01:00,84.7,64.6,29.97,ESE,121,2.0,2.0,51,0.00,,---,0.00,VWS V14.01,2013-07-12 18:01:00,
2013-07-12 13:06:00,84.7,64.6,29.97,SSE,167,3.0,8.0,51,0.00,,---,0.00,VWS V14.01,2013-07-12 18:06:00,
2013-07-12 13:11:00,85.1,65.0,29.97,ESE,110,0.0,8.0,51,0.00,,---,0.00,VWS V14.01,2013-07-12 18:11:00,
2013-07-12 13:16:00,85.5,64.8,29.97,East,85,1.0,8.0,50,0.00,,---,0.00,VWS V14.01,2013-07-12 18:16:00,
2013-07-12 13:21:00,85.5,64.8,29.97,SSE,153,1.0,9.0,50,0.00,,---,0.00,VWS V14.01,2013-07-12 18:21:00,
2013-07-12 13:26:00,85.5,64.8,29.97,SSE,157,4.0,9.0,50,0.00,,---,0.00,VWS V14.01,2013-07-12 18:26:00,
2013-07-12 13:30:00,84.1,64.6,29.97,East,95,7.0,10.0,52,0.00,,---,0.00,VWS V14.01,2013-07-12 18:30:00,
2013-07-12 13:31:00,85.7,64.9,29.96,SE,135,1.0,8.0,50,0.00,,---,0.00,VWS V14.01,2013-07-12 18:31:00,
2013-07-12 13:36:00,85.9,64.5,29.96,SSE,152,3.0,11.0,49,0.00,,---,0.00,VWS V14.01,2013-07-12 18:36:00,
2013-07-12 13:41:00,85.7,64.4,29.96,East,92,3.0,11.0,49,0.00,,---,0.00,VWS V14.01,2013-07-12 18:41:00,
2013-07-12 13:46:00,85.7,64.4,29.96,South,174,7.0,11.0,49,0.00,,---,0.00,VWS V14.01,2013-07-12 18:46:00,
2013-07-12 13:51:00,85.7,64.4,29.96,ESE,116,3.0,11.0,49,0.00,,---,0.00,VWS V14.01,2013-07-12 18:51:00,
2013-07-12 13:56:00,85.9,64.5,29.96,ESE,121,4.0,11.0,49,0.00,,---,0.00,VWS V14.01,2013-07-12 18:56:00,
2013-07-12 14:00:00,84.7,64.6,29.97,SSE,158,2.0,11.0,51,0.00,,---,0.00,VWS V14.01,2013-07-12 19:00:00,
2013-07-12 14:01:00,86.3,64.9,29.95,ESE,115,4.0,4.0,49,0.00,,---,0.00,VWS V14.01,2013-07-12 19:01:00,
2013-07-12 14:07:00,86.3,64.9,29.95,SE,140,2.0,10.0,49,0.00,,---,0.00,VWS V14.01,2013-07-12 19:07:00,
2013-07-12 14:12:00,86.7,65.3,29.95,West,263,3.0,10.0,49,0.00,,---,0.00,VWS V14.01,2013-07-12 19:12:00,
2013-07-12 14:17:00,87.0,65.6,29.95,SSE,168,2.0,10.0,49,0.00,,---,0.00,VWS V14.01,2013-07-12 19:17:00,
2013-07-12 14:22:00,87.2,65.7,29.95,South,169,6.0,10.0,49,0.00,,---,0.00,VWS V14.01,2013-07-12 19:22:00,
2013-07-12 14:27:00,87.2,65.1,29.95,South,178,4.0,10.0,48,0.00,,---,0.00,VWS V14.01,2013-07-12 19:27:00,
2013-07-12 14:30:00,85.7,64.9,29.96,South,182,7.0,9.0,50,0.00,,---,0.00,VWS V14.01,2013-07-12 19:30:00,
2013-07-12 14:32:00,87.2,65.1,29.95,SSE,163,3.0,9.0,48,0.00,,---,0.00,VWS V14.01,2013-07-12 19:32:00,
2013-07-12 14:37:00,87.6,66.1,29.95,SE,137,1.0,9.0,49,0.00,,---,0.00,VWS V14.01,2013-07-12 19:37:00,
2013-07-12 14:42:00,87.8,65.7,29.95,SSE,159,5.0,9.0,48,0.00,,---,0.00,VWS V14.01,2013-07-12 19:42:00,
2013-07-12 14:48:00,88.0,65.9,29.95,WSW,248,2.0,9.0,48,0.00,,---,0.00,VWS V14.01,2013-07-12 19:48:00,
2013-07-12 14:53:00,88.2,66.1,29.95,ESE,107,4.0,9.0,48,0.00,,---,0.00,VWS V14.01,2013-07-12 19:53:00,
2013-07-12 14:58:00,88.4,65.6,29.95,South,170,2.0,9.0,47,0.00,,---,0.00,VWS V14.01,2013-07-12 19:58:00,
2013-07-12 15:00:00,86.1,64.7,29.95,ESE,106,1.0,11.0,49,0.00,,---,0.00,VWS V14.01,2013-07-12 20:00:00,
2013-07-12 15:03:00,88.4,65.6,29.95,SSE,147,5.0,7.0,47,0.00,,---,0.00,VWS V14.01,2013-07-12 20:03:00,
2013-07-12 15:08:00,88.4,65.6,29.95,East,101,8.0,9.0,47,0.00,,---,0.00,VWS V14.01,2013-07-12 20:08:00,
2013-07-12 15:13:00,88.4,65.6,29.95,SSE,164,1.0,9.0,47,0.00,,---,0.00,VWS V14.01,2013-07-12 20:13:00,
2013-07-12 15:18:00,88.8,66.0,29.94,ESE,107,1.0,9.0,47,0.00,,---,0.00,VWS V14.01,2013-07-12 20:18:00,
2013-07-12 15:23:00,89.0,66.2,29.94,East,84,3.0,10.0,47,0.00,,---,0.00,VWS V14.01,2013-07-12 20:23:00,
2013-07-12 15:28:00,89.0,66.2,29.94,SSE,150,4.0,10.0,47,0.00,,---,0.00,VWS V14.01,2013-07-12 20:28:00,
2013-07-12 15:30:00,87.2,65.1,29.95,SSE,153,3.0,10.0,48,0.00,,---,0.00,VWS V14.01,2013-07-12 20:30:00,
2013-07-12 15:33:00,89.0,66.2,29.94,SE,134,1.0,9.0,47,0.00,,---,0.00,VWS V14.01,2013-07-12 20:33:00,
2013-07-12 15:39:00,89.3,65.8,29.94,SSE,150,4.0,9.0,46,0.00,,---,0.00,VWS V14.01,2013-07-12 20:39:00,
2013-07-12 15:44:00,89.3,66.4,29.94,ESE,117,9.0,9.0,47,0.00,,---,0.00,VWS V14.01,2013-07-12 20:44:00,
2013-07-12 15:49:00,89.0,66.2,29.94,East,90,5.0,11.0,47,0.00,,---,0.00,VWS V14.01,2013-07-12 20:49:00,
2013-07-12 15:54:00,89.0,66.2,29.94,ESE,114,4.0,11.0,47,0.00,,---,0.00,VWS V14.01,2013-07-12 20:54:00,
2013-07-12 15:59:00,89.0,65.6,29.94,South,180,5.0,11.0,46,0.00,,---,0.00,VWS V14.01,2013-07-12 20:59:00,
2013-07-12 16:00:00,88.4,65.6,29.95,South,175,4.0,9.0,47,0.00,,---,0.00,VWS V14.01,2013-07-12 21:00:00,
2013-07-12 16:04:00,88.8,66.0,29.94,ESE,108,3.0,8.0,47,0.00,,---,0.00,VWS V14.01,2013-07-12 21:04:00,
2013-07-12 16:09:00,89.0,66.2,29.94,ESE,113,3.0,8.0,47,0.00,,---,0.00,VWS V14.01,2013-07-12 21:09:00,
2013-07-12 16:14:00,89.0,66.2,29.94,South,173,4.0,8.0,47,0.00,,---,0.00,VWS V14.01,2013-07-12 21:14:00,
2013-07-12 16:19:00,89.0,65.6,29.94,SSE,150,4.0,8.0,46,0.00,,---,0.00,VWS V14.01,2013-07-12 21:19:00,
2013-07-12 16:24:00,89.3,65.8,29.94,SSW,194,1.0,9.0,46,0.00,,---,0.00,VWS V14.01,2013-07-12 21:24:00,
2013-07-12 16:29:00,89.3,65.8,29.94,ESE,106,1.0,10.0,46,0.00,,---,0.00,VWS V14.01,2013-07-12 21:29:00,
2013-07-12 16:30:00,89.0,66.2,29.94,SSE,156,5.0,10.0,47,0.00,,---,0.00,VWS V14.01,2013-07-12 21:30:00,
2013-07-12 16:34:00,89.5,66.0,29.93,ESE,108,2.0,7.0,46,0.00,,---,0.00,VWS V14.01,2013-07-12 21:34:00,
2013-07-12 16:39:00,89.0,65.6,29.93,SSE,167,2.0,7.0,46,0.00,,---,0.00,VWS V14.01,2013-07-12 21:39:00,
2013-07-12 16:45:00,88.8,65.4,29.93,East,82,3.0,9.0,46,0.00,,---,0.00,VWS V14.01,2013-07-12 21:45:00,
2013-07-12 16:50:00,88.6,65.8,29.93,SE,146,2.0,9.0,47,0.00,,---,0.00,VWS V14.01,2013-07-12 21:50:00,
2013-07-12 16:55:00,88.8,66.0,29.93,SSE,168,8.0,9.0,47,0.00,,---,0.00,VWS V14.01,2013-07-12 21:55:00,
2013-07-12 17:00:00,89.0,65.6,29.93,South,180,3.0,10.0,46,0.00,,---,0.00,VWS V14.01,2013-07-12 22:00:00,
2013-07-12 17:05:00,88.8,65.4,29.93,South,190,3.0,9.0,46,0.00,,---,0.00,VWS V14.01,2013-07-12 22:05:00,
2013-07-12 17:10:00,88.8,65.4,29.93,South,175,4.0,10.0,46,0.00,,---,0.00,VWS V14.01,2013-07-12 22:10:00,
2013-07-12 17:15:00,88.8,65.4,29.93,SSE,160,4.0,10.0,46,0.00,,---,0.00,VWS V14.01,2013-07-12 22:15:00,
2013-07-12 17:20:00,88.8,65.4,29.93,South,169,4.0,10.0,46,0.00,,---,0.00,VWS V14.01,2013-07-12 22:20:00,
2013-07-12 17:25:00,88.6,65.2,29.93,ESE,105,8.0,10.0,46,0.00,,---,0.00,VWS V14.01,2013-07-12 22:25:00,
2013-07-12 17:30:00,88.6,65.2,29.93,ESE,107,4.0,10.0,46,0.00,,---,0.00,VWS V14.01,2013-07-12 22:30:00,
2013-07-12 17:35:00,88.4,65.0,29.93,SSW,202,5.0,7.0,46,0.00,,---,0.00,VWS V14.01,2013-07-12 22:35:00,
2013-07-12 17:40:00,88.4,65.0,29.93,ESE,111,7.0,10.0,46,0.00,,---,0.00,VWS V14.01,2013-07-12 22:40:00,
2013-07-12 17:45:00,88.4,65.0,29.93,SE,140,2.0,10.0,46,0.00,,---,0.00,VWS V14.01,2013-07-12 22:45:00,
2013-07-12 17:50:00,88.6,65.2,29.93,SE,132,7.0,10.0,46,0.00,,---,0.00,VWS V14.01,2013-07-12 22:50:00,
2013-07-12 17:56:00,88.6,65.2,29.93,SE,144,5.0,10.0,46,0.00,,---,0.00,VWS V14.01,2013-07-12 22:56:00,
2013-07-12 18:00:00,88.8,65.4,29.93,SE,128,4.0,10.0,46,0.00,,---,0.00,VWS V14.01,2013-07-12 23:00:00,
2013-07-12 18:01:00,88.6,65.2,29.92,South,189,5.0,5.0,46,0.00,,---,0.00,VWS V14.01,2013-07-12 23:01:00,
2013-07-12 18:06:00,88.4,65.0,29.92,SE,128,2.0,7.0,46,0.00,,---,0.00,VWS V14.01,2013-07-12 23:06:00,
2013-07-12 18:11:00,88.2,64.8,29.92,ESE,115,2.0,9.0,46,0.00,,---,0.00,VWS V14.01,2013-07-12 23:11:00,
2013-07-12 18:16:00,88.2,64.8,29.92,South,172,2.0,9.0,46,0.00,,---,0.00,VWS V14.01,2013-07-12 23:16:00,
2013-07-12 18:21:00,88.2,64.8,29.92,South,173,2.0,10.0,46,0.00,,---,0.00,VWS V14.01,2013-07-12 23:21:00,
2013-07-12 18:26:00,88.0,64.7,29.92,SSE,168,3.0,10.0,46,0.00,,---,0.00,VWS V14.01,2013-07-12 23:26:00,
2013-07-12 18:30:00,88.6,65.2,29.93,ESE,108,1.0,10.0,46,0.00,,---,0.00,VWS V14.01,2013-07-12 23:30:00,
2013-07-12 18:31:00,87.8,64.5,29.92,SE,142,5.0,6.0,46,0.00,,---,0.00,VWS V14.01,2013-07-12 23:31:00,
2013-07-12 18:36:00,87.6,64.3,29.92,ENE,59,12.0,12.0,46,0.00,,---,0.00,VWS V14.01,2013-07-12 23:36:00,
2013-07-12 18:42:00,87.4,64.1,29.92,South,169,4.0,13.0,46,0.00,,---,0.00,VWS V14.01,2013-07-12 23:42:00,
2013-07-12 18:47:00,87.4,64.1,29.91,ESE,109,0.0,13.0,46,0.00,,---,0.00,VWS V14.01,2013-07-12 23:47:00,
2013-07-12 18:52:00,87.2,63.9,29.91,SE,133,2.0,13.0,46,0.00,,---,0.00,VWS V14.01,2013-07-12 23:52:00,
2013-07-12 18:57:00,87.0,63.7,29.91,South,183,3.0,13.0,46,0.00,,---,0.00,VWS V14.01,2013-07-12 23:57:00,
2013-07-12 19:00:00,88.6,65.2,29.92,South,174,3.0,10.0,46,0.00,,---,0.00,VWS V14.01,2013-07-13 00:00:00,
2013-07-12 19:02:00,87.0,63.7,29.92,SE,134,4.0,7.0,46,0.00,,---,0.00,VWS V14.01,2013-07-13 00:02:00,
2013-07-12 19:07:00,86.5,63.3,29.92,East,96,3.0,7.0,46,0.00,,---,0.00,VWS V14.01,2013-07-13 00:07:00,
2013-07-12 19:12:00,86.3,63.1,29.92,East,100,7.0,7.0,46,0.00,,---,0.00,VWS V14.01,2013-07-13 00:12:00,
2013-07-12 19:17:00,86.1,62.9,29.92,SE,146,5.0,7.0,46,0.00,,---,0.00,VWS V14.01,2013-07-13 00:17:00,
2013-07-12 19:23:00,85.9,62.7,29.92,ESE,107,2.0,7.0,46,0.00,,---,0.00,VWS V14.01,2013-07-13 00:23:00,
2013-07-12 19:28:00,85.7,62.6,29.92,ESE,106,1.0,7.0,46,0.00,,---,0.00,VWS V14.01,2013-07-13 00:28:00,
2013-07-12 19:30:00,87.8,64.5,29.92,South,189,6.0,10.0,46,0.00,,---,0.00,VWS V14.01,2013-07-13 00:30:00,
2013-07-12 19:33:00,85.5,63.0,29.92,SE,125,1.0,4.0,47,0.00,,---,0.00,VWS V14.01,2013-07-13 00:33:00,
2013-07-12 19:38:00,85.3,62.8,29.92,East,96,2.0,6.0,47,0.00,,---,0.00,VWS V14.01,2013-07-13 00:38:00,
2013-07-12 19:43:00,85.1,62.6,29.92,ESE,109,1.0,6.0,47,0.00,,---,0.00,VWS V14.01,2013-07-13 00:43:00,
2013-07-12 19:48:00,84.9,62.4,29.92,ESE,122,0.0,6.0,47,0.00,,---,0.00,VWS V14.01,2013-07-13 00:48:00,
2013-07-12 19:53:00,84.7,62.3,29.92,ESE,105,2.0,6.0,47,0.00,,---,0.00,VWS V14.01,2013-07-13 00:53:00,
2013-07-12 19:58:00,84.5,62.1,29.92,East,90,3.0,6.0,47,0.00,,---,0.00,VWS V14.01,2013-07-13 00:58:00,
2013-07-12 20:00:00,87.0,63.7,29.92,ESE,121,0.0,13.0,46,0.00,,---,0.00,VWS V14.01,2013-07-13 01:00:00,
2013-07-12 20:03:00,84.3,61.9,29.92,ESE,107,0.0,2.0,47,0.00,,---,0.00,VWS V14.01,2013-07-13 01:03:00,
2013-07-12 20:08:00,84.1,61.7,29.92,SE,143,1.0,4.0,47,0.00,,---,0.00,VWS V14.01,2013-07-13 01:08:00,
2013-07-12 20:13:00,83.8,62.0,29.92,SE,141,2.0,7.0,48,0.00,,---,0.00,VWS V14.01,2013-07-13 01:13:00,
2013-07-12 20:18:00,83.6,61.8,29.92,ESE,116,1.0,7.0,48,0.00,,---,0.00,VWS V14.01,2013-07-13 01:18:00,
2013-07-12 20:23:00,83.4,61.7,29.92,SE,140,2.0,7.0,48,0.00,,---,0.00,VWS V14.01,2013-07-13 01:23:00,
2013-07-12 20:28:00,83.0,61.3,29.92,SE,142,2.0,7.0,48,0.00,,---,0.00,VWS V14.01,2013-07-13 01:28:00,
2013-07-12 20:30:00,85.5,62.4,29.92,SE,139,2.0,10.0,46,0.00,,---,0.00,VWS V14.01,2013-07-13 01:30:00,
2013-07-12 20:33:00,82.8,61.1,29.92,SE,139,2.0,3.0,48,0.00,,---,0.00,VWS V14.01,2013-07-13 01:33:00,
2013-07-12 20:38:00,82.4,61.3,29.92,ESE,121,2.0,3.0,49,0.00,,---,0.00,VWS V14.01,2013-07-13 01:38:00,
2013-07-12 20:43:00,82.2,61.2,29.92,SSE,148,0.0,3.0,49,0.00,,---,0.00,VWS V14.01,2013-07-13 01:43:00,
2013-07-12 20:48:00,81.8,60.8,29.92,ESE,111,1.0,3.0,49,0.00,,---,0.00,VWS V14.01,2013-07-13 01:48:00,
2013-07-12 20:53:00,81.6,60.6,29.92,SE,130,0.0,3.0,49,0.00,,---,0.00,VWS V14.01,2013-07-13 01:53:00,
2013-07-12 20:58:00,81.2,60.2,29.92,ESE,110,1.0,3.0,49,0.00,,---,0.00,VWS V14.01,2013-07-13 01:58:00,
2013-07-12 21:00:00,84.3,61.9,29.92,ESE,107,0.0,6.0,47,0.00,,---,0.00,VWS V14.01,2013-07-13 02:00:00,
2013-07-12 21:03:00,81.1,60.7,29.93,SE,132,1.0,3.0,50,0.00,,---,0.00,VWS V14.01,2013-07-13 02:03:00,
2013-07-12 21:08:00,80.7,60.3,29.93,SE,136,0.0,3.0,50,0.00,,---,0.00,VWS V14.01,2013-07-13 02:08:00,
2013-07-12 21:13:00,80.5,60.2,29.93,SSE,158,0.0,3.0,50,0.00,,---,0.00,VWS V14.01,2013-07-13 02:13:00,
2013-07-12 21:18:00,80.1,59.8,29.93,SSE,158,0.0,3.0,50,0.00,,---,0.00,VWS V14.01,2013-07-13 02:18:00,
2013-07-12 21:23:00,79.9,59.6,29.93,SE,133,1.0,4.0,50,0.00,,---,0.00,VWS V14.01,2013-07-13 02:23:00,
2013-07-12 21:28:00,79.6,59.3,29.93,SE,133,0.0,4.0,50,0.00,,---,0.00,VWS V14.01,2013-07-13 02:28:00,
2013-07-12 21:30:00,83.0,61.3,29.92,ESE,103,2.0,7.0,48,0.00,,---,0.00,VWS V14.01,2013-07-13 02:30:00,
2013-07-12 21:34:00,79.4,59.7,29.93,SSE,159,1.0,2.0,51,0.00,,---,0.00,VWS V14.01,2013-07-13 02:34:00,
2013-07-12 21:39:00,79.2,59.5,29.93,ESE,121,0.0,2.0,51,0.00,,---,0.00,VWS V14.01,2013-07-13 02:39:00,
2013-07-12 21:44:00,79.0,59.3,29.93,SSE,156,2.0,3.0,51,0.00,,---,0.00,VWS V14.01,2013-07-13 02:44:00,
2013-07-12 21:49:00,78.8,59.2,29.93,SSE,156,1.0,3.0,51,0.00,,---,0.00,VWS V14.01,2013-07-13 02:49:00,
2013-07-12 21:54:00,78.6,59.5,29.93,SE,140,1.0,3.0,52,0.00,,---,0.00,VWS V14.01,2013-07-13 02:54:00,
2013-07-12 21:59:00,78.5,59.4,29.93,SSE,153,0.0,3.0,52,0.00,,---,0.00,VWS V14.01,2013-07-13 02:59:00,
2013-07-12 22:00:00,81.1,60.7,29.93,ESE,116,0.0,3.0,50,0.00,,---,0.00,VWS V14.01,2013-07-13 03:00:00,
2013-07-12 22:04:00,78.3,59.2,29.93,ESE,107,0.0,3.0,52,0.00,,---,0.00,VWS V14.01,2013-07-13 03:04:00,
2013-07-12 22:09:00,78.1,59.1,29.93,ESE,107,0.0,3.0,52,0.00,,---,0.00,VWS V14.01,2013-07-13 03:09:00,
2013-07-12 22:14:00,77.9,58.9,29.93,ESE,123,1.0,4.0,52,0.00,,---,0.00,VWS V14.01,2013-07-13 03:14:00,
2013-07-12 22:19:00,77.7,59.2,29.94,SE,126,0.0,4.0,53,0.00,,---,0.00,VWS V14.01,2013-07-13 03:19:00,
2013-07-12 22:24:00,77.6,59.1,29.94,SE,136,1.0,4.0,53,0.00,,---,0.00,VWS V14.01,2013-07-13 03:24:00,
2013-07-12 22:29:00,77.4,59.0,29.94,SE,136,1.0,4.0,53,0.00,,---,0.00,VWS V14.01,2013-07-13 03:29:00,
2013-07-12 22:30:00,79.6,59.9,29.93,SE,133,0.0,4.0,51,0.00,,---,0.00,VWS V14.01,2013-07-13 03:30:00,
2013-07-12 22:35:00,77.4,59.0,29.95,SE,136,0.0,2.0,53,0.00,,---,0.00,VWS V14.01,2013-07-13 03:35:00,
2013-07-12 22:40:00,77.2,58.8,29.95,SE,133,2.0,3.0,53,0.00,,---,0.00,VWS V14.01,2013-07-13 03:40:00,
2013-07-12 22:45:00,77.0,59.1,29.94,SE,134,0.0,3.0,54,0.00,,---,0.00,VWS V14.01,2013-07-13 03:45:00,
2013-07-12 22:50:00,76.8,58.9,29.94,SSE,150,2.0,3.0,54,0.00,,---,0.00,VWS V14.01,2013-07-13 03:50:00,
2013-07-12 22:55:00,76.7,58.8,29.94,SE,133,0.0,3.0,54,0.00,,---,0.00,VWS V14.01,2013-07-13 03:55:00,
2013-07-12 23:00:00,76.5,58.6,29.94,SSE,150,0.0,5.0,54,0.00,,---,0.00,VWS V14.01,2013-07-13 04:00:00,
2013-07-12 23:01:00,76.5,58.6,29.94,SSE,150,1.0,1.0,54,0.00,,---,0.00,VWS V14.01,2013-07-13 04:01:00,
2013-07-12 23:02:00,76.5,58.6,29.94,ESE,118,3.0,3.0,54,0.00,,---,0.00,VWS V14.01,2013-07-13 04:02:00,
2013-07-12 23:07:00,76.5,59.2,29.94,SSE,164,1.0,3.0,55,0.00,,---,0.00,VWS V14.01,2013-07-13 04:07:00,
2013-07-12 23:12:00,76.3,59.0,29.94,SSE,155,2.0,4.0,55,0.00,,---,0.00,VWS V14.01,2013-07-13 04:12:00,
2013-07-12 23:17:00,76.3,59.0,29.94,SE,125,2.0,7.0,55,0.00,,---,0.00,VWS V14.01,2013-07-13 04:17:00,
2013-07-12 23:22:00,76.1,59.3,29.94,South,171,2.0,7.0,56,0.00,,---,0.00,VWS V14.01,2013-07-13 04:22:00,
2013-07-12 23:27:00,76.0,59.2,29.94,South,169,1.0,7.0,56,0.00,,---,0.00,VWS V14.01,2013-07-13 04:27:00,
2013-07-12 23:30:00,77.4,59.0,29.95,SE,136,0.0,4.0,53,0.00,,---,0.00,VWS V14.01,2013-07-13 04:30:00,
2013-07-12 23:32:00,76.0,59.2,29.93,ESE,113,2.0,6.0,56,0.00,,---,0.00,VWS V14.01,2013-07-13 04:32:00,
2013-07-12 23:37:00,75.8,59.0,29.93,SE,142,2.0,7.0,56,0.00,,---,0.00,VWS V14.01,2013-07-13 04:37:00,
2013-07-12 23:42:00,75.8,59.0,29.93,ESE,103,0.0,7.0,56,0.00,,---,0.00,VWS V14.01,2013-07-13 04:42:00,
2013-07-12 23:47:00,75.6,59.3,29.93,ESE,120,0.0,7.0,57,0.00,,---,0.00,VWS V14.01,2013-07-13 04:47:00,
2013-07-12 23:52:00,75.4,59.1,29.93,ESE,107,3.0,7.0,57,0.00,,---,0.00,VWS V14.01,2013-07-13 04:52:00,
2013-07-12 23:57:00,75.4,59.1,29.93,SE,128,1.0,7.0,57,0.00,,---,0.00,VWS V14.01,2013-07-13 04:57:00,